createdAt,value
2019-05-18T00:01:23.361Z,91.90
2019-05-18T00:03:51.876Z,92.10
2019-05-18T00:06:20.442Z,92.20
2019-05-18T00:08:49.019Z,92.30
2019-05-18T00:11:17.571Z,92.30
2019-05-18T00:13:46.202Z,91.90
2019-05-18T00:16:14.860Z,92.00
2019-05-18T00:18:43.411Z,92.30
2019-05-18T00:21:12.054Z,92.30
2019-05-18T00:23:40.662Z,92.20
2019-05-18T00:26:09.218Z,92.50
2019-05-18T00:28:37.773Z,92.50
2019-05-18T00:31:06.420Z,92.50
2019-05-18T00:33:35.019Z,92.40
2019-05-18T00:36:03.614Z,92.50
2019-05-18T00:38:32.175Z,93.00
2019-05-18T00:41:00.730Z,92.80
2019-05-18T00:43:29.274Z,93.50
2019-05-18T00:45:57.843Z,94.80
2019-05-18T00:48:26.397Z,94.70
2019-05-18T00:50:54.958Z,95.10
2019-05-18T00:53:23.594Z,95.30
2019-05-18T00:55:52.146Z,95.20
2019-05-18T00:58:20.718Z,95.70
2019-05-18T01:00:49.314Z,95.90
2019-05-18T01:03:17.868Z,95.90
2019-05-18T01:05:46.422Z,96.10
2019-05-18T01:08:15.138Z,95.80
2019-05-18T01:10:44.331Z,95.80
2019-05-18T01:13:13.330Z,95.80
2019-05-18T01:15:41.907Z,96.10
2019-05-18T01:18:10.468Z,96.20
2019-05-18T01:20:39.035Z,95.90
2019-05-18T01:23:07.691Z,96.10
2019-05-18T01:25:36.319Z,96.50
2019-05-18T01:28:04.930Z,96.60
2019-05-18T01:30:33.642Z,96.40
2019-05-18T01:33:02.208Z,96.60
2019-05-18T01:35:30.916Z,96.50
2019-05-18T01:37:59.497Z,96.60
2019-05-18T01:40:28.061Z,96.80
2019-05-18T01:42:56.622Z,96.80
2019-05-18T01:45:25.271Z,96.80
2019-05-18T01:47:53.831Z,97.00
2019-05-18T01:50:22.447Z,96.80
2019-05-18T01:52:51.583Z,96.90
2019-05-18T01:55:20.137Z,96.70
2019-05-18T01:57:48.698Z,96.80
2019-05-18T02:00:17.613Z,96.70
2019-05-18T02:02:46.170Z,96.80
2019-05-18T02:05:14.854Z,96.80
2019-05-18T02:07:43.497Z,96.70
2019-05-18T02:10:12.799Z,96.70
2019-05-18T02:12:41.346Z,96.90
2019-05-18T02:15:10.558Z,96.90
2019-05-18T02:17:39.176Z,96.90
2019-05-18T02:20:08.774Z,97.00
2019-05-18T02:22:37.343Z,97.20
2019-05-18T02:25:08.343Z,97.20
2019-05-18T02:27:36.899Z,97.30
2019-05-18T02:30:08.440Z,97.10
2019-05-18T02:32:36.959Z,97.30
2019-05-18T02:35:07.399Z,97.10
2019-05-18T02:37:36.042Z,97.20
2019-05-18T02:40:06.839Z,97.10
2019-05-18T02:42:35.467Z,97.60
2019-05-18T02:45:06.388Z,97.40
2019-05-18T02:47:35.014Z,97.50
2019-05-18T02:50:05.903Z,97.50
2019-05-18T02:52:34.502Z,97.50
2019-05-18T02:55:03.407Z,97.50
2019-05-18T02:57:31.951Z,97.50
2019-05-18T03:00:00.515Z,97.40
2019-05-18T03:02:29.070Z,97.70
2019-05-18T03:05:18.613Z,97.50
2019-05-18T03:07:47.301Z,97.50
2019-05-18T03:10:17.284Z,97.60
2019-05-18T03:12:46.619Z,97.70
2019-05-18T03:15:15.829Z,97.70
2019-05-18T03:17:44.564Z,97.90
2019-05-18T03:20:13.335Z,97.80
2019-05-18T03:22:41.960Z,98.00
2019-05-18T03:25:11.251Z,97.90
2019-05-18T03:27:39.933Z,97.80
2019-05-18T03:30:09.721Z,97.60
2019-05-18T03:32:38.357Z,97.70
2019-05-18T03:35:07.972Z,97.70
2019-05-18T03:37:36.524Z,97.90
2019-05-18T03:40:06.714Z,97.90
2019-05-18T03:42:35.278Z,97.90
2019-05-18T03:45:04.277Z,98.10
2019-05-18T03:47:32.917Z,98.10
2019-05-18T03:50:01.496Z,98.00
2019-05-18T03:52:30.051Z,98.10
2019-05-18T03:54:58.618Z,98.20
2019-05-18T03:57:27.175Z,98.20
2019-05-18T03:59:55.745Z,98.30
2019-05-18T04:02:24.306Z,98.70
2019-05-18T04:04:52.890Z,98.40
2019-05-18T04:07:21.455Z,98.40
2019-05-18T04:09:50.087Z,98.60
2019-05-18T04:12:18.666Z,98.70
2019-05-18T04:14:47.223Z,98.60
2019-05-18T04:17:15.777Z,98.50
2019-05-18T04:19:46.831Z,98.60
2019-05-18T04:22:14.555Z,98.60
2019-05-18T04:24:43.096Z,98.70
2019-05-18T04:27:11.679Z,98.90
2019-05-18T04:29:40.232Z,98.60
2019-05-18T04:32:08.783Z,98.60
2019-05-18T04:34:37.356Z,98.70
2019-05-18T04:37:05.912Z,98.70
2019-05-18T04:39:34.468Z,98.70
2019-05-18T04:42:03.133Z,98.90
2019-05-18T04:44:31.691Z,98.70
2019-05-18T04:47:00.311Z,98.70
2019-05-18T04:49:28.867Z,98.70
2019-05-18T04:51:57.419Z,98.80
2019-05-18T04:54:26.054Z,98.80
2019-05-18T04:56:54.627Z,99.00
2019-05-18T04:59:23.207Z,98.80
2019-05-18T05:01:51.809Z,99.00
2019-05-18T05:04:20.470Z,99.00
2019-05-18T05:06:49.058Z,99.10
2019-05-18T05:09:17.605Z,99.10
2019-05-18T05:11:46.170Z,99.00
2019-05-18T05:14:14.730Z,99.40
2019-05-18T05:16:43.372Z,99.10
2019-05-18T05:19:12.049Z,99.20
2019-05-18T05:21:40.602Z,99.20
2019-05-18T05:24:09.154Z,99.20
2019-05-18T05:26:39.593Z,99.30
2019-05-18T05:29:07.931Z,99.20
2019-05-18T05:31:36.639Z,99.20
2019-05-18T05:34:05.189Z,99.30
2019-05-18T05:36:33.732Z,99.20
2019-05-18T05:39:02.371Z,99.10
2019-05-18T05:41:30.942Z,99.10
2019-05-18T05:43:59.484Z,99.20
2019-05-18T05:46:28.170Z,99.20
2019-05-18T05:48:56.726Z,98.90
2019-05-18T05:51:25.451Z,99.00
2019-05-18T05:53:54.027Z,98.90
2019-05-18T05:56:22.663Z,99.20
2019-05-18T05:58:51.221Z,98.90
2019-05-18T06:01:19.835Z,99.00
2019-05-18T06:03:48.356Z,99.00
2019-05-18T06:06:16.926Z,98.90
2019-05-18T06:08:45.487Z,98.90
2019-05-18T06:11:14.058Z,98.90
2019-05-18T06:13:42.690Z,98.70
2019-05-18T06:16:11.323Z,98.60
2019-05-18T06:18:39.888Z,98.70
2019-05-18T06:21:08.537Z,98.90
2019-05-18T06:23:37.208Z,98.70
2019-05-18T06:26:05.834Z,98.70
2019-05-18T06:28:34.396Z,98.90
2019-05-18T06:31:03.043Z,98.90
2019-05-18T06:33:31.614Z,98.60
2019-05-18T06:36:00.213Z,98.80
2019-05-18T06:38:28.874Z,98.80
2019-05-18T06:40:57.427Z,99.00
2019-05-18T06:43:26.650Z,98.90
2019-05-18T06:45:55.322Z,98.90
2019-05-18T06:48:23.947Z,98.80
2019-05-18T06:51:06.390Z,98.80
2019-05-18T06:53:23.493Z,98.90
2019-05-18T06:55:53.999Z,98.80
2019-05-18T06:58:23.687Z,98.70
2019-05-18T07:00:52.377Z,98.80
2019-05-18T07:03:20.991Z,98.60
2019-05-18T07:05:49.501Z,98.80
2019-05-18T07:08:18.082Z,98.90
2019-05-18T07:10:46.639Z,99.10
2019-05-18T07:13:15.217Z,99.00
2019-05-18T07:15:45.234Z,98.70
2019-05-18T07:18:13.866Z,98.50
2019-05-18T07:20:42.425Z,98.30
2019-05-18T07:23:11.126Z,98.70
2019-05-18T07:25:39.674Z,98.70
2019-05-18T07:28:08.232Z,98.60
2019-05-18T07:30:36.887Z,98.50
2019-05-18T07:33:05.522Z,98.30
2019-05-18T07:35:34.086Z,98.70
2019-05-18T07:38:03.249Z,98.30
2019-05-18T07:40:31.828Z,98.20
2019-05-18T07:43:00.367Z,98.30
2019-05-18T07:45:29.129Z,98.40
2019-05-18T07:47:57.695Z,98.60
2019-05-18T07:50:26.327Z,98.70
2019-05-18T07:52:55.017Z,98.70
2019-05-18T07:55:23.664Z,98.50
2019-05-18T07:57:52.330Z,98.50
2019-05-18T08:00:20.955Z,98.50
2019-05-18T08:02:49.582Z,98.30
2019-05-18T08:05:18.302Z,98.20
2019-05-18T08:07:46.903Z,98.00
2019-05-18T08:10:17.179Z,98.10
2019-05-18T08:12:45.728Z,98.10
2019-05-18T08:15:14.857Z,97.80
2019-05-18T08:17:43.421Z,98.40
2019-05-18T08:20:12.235Z,98.30
2019-05-18T08:22:40.830Z,98.30
2019-05-18T08:25:09.638Z,98.40
2019-05-18T08:27:38.239Z,98.60
2019-05-18T08:30:07.742Z,98.30
2019-05-18T08:32:36.454Z,98.20
2019-05-18T08:35:07.324Z,98.10
2019-05-18T08:37:36.015Z,97.70
2019-05-18T08:40:07.283Z,97.90
2019-05-18T08:42:36.239Z,97.90
2019-05-18T08:45:08.013Z,98.00
2019-05-18T08:47:36.731Z,98.00
2019-05-18T08:50:07.320Z,98.10
2019-05-18T08:52:35.878Z,98.40
2019-05-18T08:55:06.287Z,98.00
2019-05-18T08:57:34.978Z,98.00
2019-05-18T09:00:04.770Z,98.00
2019-05-18T09:02:33.337Z,98.10
2019-05-18T09:05:04.783Z,98.20
2019-05-18T09:07:32.830Z,97.70
2019-05-18T09:10:01.490Z,97.80
2019-05-18T09:12:30.511Z,97.00
2019-05-18T09:14:59.185Z,97.30
2019-05-18T09:17:27.839Z,97.00
2019-05-18T09:19:56.632Z,96.90
2019-05-18T09:22:25.207Z,96.60
2019-05-18T09:24:53.959Z,95.50
2019-05-18T09:27:22.642Z,95.00
2019-05-18T09:29:51.338Z,95.30
2019-05-18T09:32:20.030Z,95.10
2019-05-18T09:34:48.747Z,95.40
2019-05-18T09:37:17.423Z,95.50
2019-05-18T09:39:46.051Z,95.70
2019-05-18T09:42:14.838Z,95.60
2019-05-18T09:44:43.412Z,96.10
2019-05-18T09:47:12.024Z,95.70
2019-05-18T09:49:40.711Z,95.10
2019-05-18T09:52:09.267Z,95.70
2019-05-18T09:54:37.957Z,95.40
2019-05-18T09:57:06.657Z,94.90
2019-05-18T09:59:35.303Z,95.00
2019-05-18T10:02:03.965Z,94.30
2019-05-18T10:04:32.606Z,94.20
2019-05-18T10:07:01.155Z,93.90
2019-05-18T10:09:38.530Z,93.90
2019-05-18T10:12:00.067Z,93.30
2019-05-18T10:14:28.624Z,92.80
2019-05-18T10:16:57.174Z,93.50
2019-05-18T10:19:25.829Z,92.80
2019-05-18T10:21:54.468Z,92.50
2019-05-18T10:24:22.994Z,92.90
2019-05-18T10:26:51.775Z,93.00
2019-05-18T10:29:20.349Z,92.50
2019-05-18T10:31:48.887Z,91.80
2019-05-18T10:34:17.571Z,91.40
2019-05-18T10:36:47.622Z,91.40
2019-05-18T10:39:16.218Z,90.90
2019-05-18T10:41:44.792Z,90.90
2019-05-18T10:44:13.522Z,91.40
2019-05-18T10:46:42.084Z,90.50
2019-05-18T10:49:10.694Z,90.20
2019-05-18T10:51:39.246Z,89.70
2019-05-18T10:54:09.333Z,89.80
2019-05-18T10:56:38.475Z,89.20
2019-05-18T10:59:07.033Z,88.00
2019-05-18T11:01:35.611Z,89.20
2019-05-18T11:04:04.281Z,89.20
2019-05-18T11:06:32.948Z,89.40
2019-05-18T11:09:01.601Z,89.60
2019-05-18T11:11:30.241Z,90.00
2019-05-18T11:13:58.968Z,89.70
2019-05-18T11:16:27.575Z,90.00
2019-05-18T11:18:56.246Z,89.60
2019-05-18T11:21:24.895Z,89.40
2019-05-18T11:23:53.423Z,87.50
2019-05-18T11:26:22.089Z,86.70
2019-05-18T11:28:50.736Z,87.40
2019-05-18T11:31:19.276Z,87.10
2019-05-18T11:33:47.890Z,86.90
2019-05-18T11:36:16.545Z,86.90
2019-05-18T11:38:45.188Z,86.30
2019-05-18T11:41:13.790Z,86.60
2019-05-18T11:43:42.338Z,86.70
2019-05-18T11:46:10.899Z,87.20
2019-05-18T11:48:39.582Z,85.90
2019-05-18T11:51:08.616Z,87.00
2019-05-18T11:53:37.174Z,85.90
2019-05-18T11:56:05.816Z,85.10
2019-05-18T11:58:34.363Z,82.70
2019-05-18T12:01:02.922Z,84.10
2019-05-18T12:03:31.601Z,84.10
2019-05-18T12:06:00.166Z,83.80
2019-05-18T12:08:28.729Z,84.30
2019-05-18T12:10:57.487Z,84.40
2019-05-18T12:13:26.035Z,84.30
2019-05-18T12:15:54.613Z,84.70
2019-05-18T12:18:23.369Z,84.90
2019-05-18T12:20:51.922Z,85.10
2019-05-18T12:23:20.551Z,85.20
2019-05-18T12:25:50.796Z,85.00
2019-05-18T12:28:19.364Z,85.10
2019-05-18T12:30:47.928Z,85.30
2019-05-18T12:33:16.574Z,85.10
2019-05-18T12:35:45.228Z,85.20
2019-05-18T12:38:13.791Z,84.80
2019-05-18T12:40:42.368Z,85.50
2019-05-18T12:43:10.928Z,84.90
2019-05-18T12:45:39.556Z,85.20
2019-05-18T12:48:08.207Z,84.40
2019-05-18T12:50:36.764Z,83.20
2019-05-18T12:53:05.834Z,83.40
2019-05-18T12:55:34.443Z,82.90
2019-05-18T12:58:02.999Z,82.30
2019-05-18T13:00:32.008Z,80.90
2019-05-18T13:03:00.566Z,80.60
2019-05-18T13:05:29.126Z,80.30
2019-05-18T13:07:57.695Z,79.60
2019-05-18T13:10:26.503Z,78.60
2019-05-18T13:12:55.082Z,78.00
2019-05-18T13:15:24.001Z,77.50
2019-05-18T13:17:52.774Z,76.00
2019-05-18T13:20:21.470Z,74.90
2019-05-18T13:22:50.158Z,74.60
2019-05-18T13:25:18.899Z,73.30
2019-05-18T13:27:47.456Z,72.50
2019-05-18T13:30:19.858Z,74.70
2019-05-18T13:32:48.154Z,76.60
2019-05-18T13:35:17.082Z,76.00
2019-05-18T13:37:45.649Z,75.80
2019-05-18T13:40:16.689Z,73.40
2019-05-18T13:42:45.239Z,73.90
2019-05-18T13:45:14.951Z,74.00
2019-05-18T13:47:43.680Z,74.90
2019-05-18T13:50:13.472Z,74.30
2019-05-18T13:52:42.101Z,74.30
2019-05-18T13:55:11.446Z,74.50
2019-05-18T13:57:40.061Z,72.60
2019-05-18T14:00:10.152Z,70.30
2019-05-18T14:02:39.149Z,68.70
2019-05-18T14:05:08.162Z,69.20
2019-05-18T14:07:36.714Z,69.60
2019-05-18T14:10:12.608Z,66.90
2019-05-18T14:12:41.455Z,66.20
2019-05-18T14:15:12.039Z,65.80
2019-05-18T14:17:40.704Z,63.80
2019-05-18T14:20:10.003Z,64.50
2019-05-18T14:22:38.551Z,64.60
2019-05-18T14:25:18.701Z,66.40
2019-05-18T14:27:39.087Z,65.50
2019-05-18T14:30:09.599Z,65.20
2019-05-18T14:32:38.171Z,65.60
2019-05-18T14:35:08.573Z,66.50
2019-05-18T14:37:37.138Z,66.70
2019-05-18T14:40:07.248Z,67.80
2019-05-18T14:42:36.072Z,68.60
2019-05-18T14:45:07.660Z,67.20
2019-05-18T14:47:36.492Z,66.20
2019-05-18T14:50:07.175Z,65.00
2019-05-18T14:52:36.158Z,66.00
2019-05-18T14:55:06.743Z,63.30
2019-05-18T14:57:35.319Z,65.20
2019-05-18T15:00:06.211Z,65.70
2019-05-18T15:02:34.860Z,65.50
2019-05-18T15:53:46.236Z,60.70
2019-05-18T15:56:14.805Z,58.30
2019-05-18T15:58:43.360Z,55.50
2019-05-18T16:01:12.927Z,57.00
2019-05-18T16:03:41.484Z,57.60
2019-05-18T16:06:10.070Z,58.90
2019-05-18T16:08:38.729Z,59.40
2019-05-18T16:11:07.362Z,58.70
2019-05-18T16:13:35.926Z,59.60
2019-05-18T16:16:05.897Z,60.40
2019-05-18T16:18:34.447Z,62.10
2019-05-18T16:21:03.103Z,63.00
2019-05-18T16:23:36.242Z,65.70
2019-05-18T16:28:58.822Z,64.90
2019-05-18T16:31:27.379Z,65.40
2019-05-18T16:33:56.019Z,63.30
2019-05-18T16:36:24.719Z,58.30
2019-05-18T16:38:53.261Z,58.60
2019-05-18T16:41:21.821Z,59.20
2019-05-18T16:43:50.379Z,58.90
2019-05-18T16:46:18.927Z,56.40
2019-05-18T16:48:47.505Z,52.70
2019-05-18T16:51:16.399Z,52.60
2019-05-18T16:53:49.437Z,51.80
2019-05-18T16:56:15.318Z,52.30
2019-05-18T16:58:44.220Z,55.30
2019-05-18T17:01:12.875Z,57.30
2019-05-18T17:03:41.534Z,57.80
2019-05-18T17:06:10.295Z,57.50
2019-05-18T17:08:38.872Z,58.80
2019-05-18T17:11:09.303Z,60.60
2019-05-18T17:13:37.913Z,60.00
2019-05-18T17:16:06.643Z,58.10
2019-05-18T17:18:35.253Z,60.70
2019-05-18T17:21:04.599Z,60.00
2019-05-18T17:23:33.293Z,61.80
2019-05-18T17:26:01.852Z,68.10
2019-05-18T17:28:30.528Z,71.90
2019-05-18T17:30:59.158Z,75.40
2019-05-18T17:33:27.747Z,76.80
2019-05-18T17:36:00.311Z,76.00
2019-05-18T17:38:26.648Z,77.40
2019-05-18T17:40:55.243Z,78.20
2019-05-18T17:43:23.860Z,78.20
2019-05-18T17:45:52.447Z,80.00
2019-05-18T17:48:21.061Z,79.70
2019-05-18T17:50:49.789Z,78.70
2019-05-18T17:53:20.147Z,79.20
2019-05-18T17:55:48.808Z,82.10
2019-05-18T17:58:17.584Z,82.20
2019-05-18T18:00:46.654Z,81.70
2019-05-18T18:03:15.301Z,82.50
2019-05-18T18:05:44.003Z,84.10
2019-05-18T18:08:21.492Z,84.80
2019-05-18T18:10:50.603Z,84.80
2019-05-18T18:13:19.166Z,85.10
2019-05-18T18:15:47.787Z,85.10
2019-05-18T18:18:17.986Z,85.30
2019-05-18T18:20:46.930Z,85.80
2019-05-18T18:23:15.554Z,85.80
2019-05-18T18:26:03.667Z,86.00
2019-05-18T18:28:32.577Z,85.80
2019-05-18T18:31:01.524Z,85.70
2019-05-18T18:33:30.457Z,86.10
2019-05-18T18:35:59.077Z,86.20
2019-05-18T18:38:27.641Z,86.10
2019-05-18T18:40:56.363Z,86.70
2019-05-18T18:43:25.006Z,87.40
2019-05-18T18:45:53.598Z,87.50
2019-05-18T18:48:22.283Z,87.30
2019-05-18T18:50:50.904Z,86.90
2019-05-18T18:53:19.741Z,87.10
2019-05-18T18:55:48.408Z,87.20
2019-05-18T18:58:16.987Z,87.30
2019-05-18T19:00:45.563Z,87.40
2019-05-18T19:03:14.477Z,88.20
2019-05-18T19:05:43.023Z,88.20
2019-05-18T19:08:11.826Z,87.80
2019-05-18T19:10:40.511Z,87.80
2019-05-18T19:13:09.524Z,88.20
2019-05-18T19:15:38.091Z,88.10
2019-05-18T19:18:07.035Z,88.40
2019-05-18T19:20:35.758Z,87.80
2019-05-18T19:23:04.671Z,88.00
2019-05-18T19:25:33.374Z,87.60
2019-05-18T19:28:02.244Z,87.80
2019-05-18T19:30:33.026Z,87.80
2019-05-18T19:33:20.550Z,87.80
2019-05-18T19:35:49.167Z,88.20
2019-05-18T19:38:17.730Z,89.60
2019-05-18T19:40:46.682Z,89.10
2019-05-18T19:43:15.262Z,89.10
2019-05-18T19:45:43.822Z,89.30
2019-05-18T19:48:12.378Z,90.10
2019-05-18T19:50:41.491Z,89.70
2019-05-18T19:53:10.079Z,89.90
2019-05-18T19:55:38.722Z,89.50
2019-05-18T19:58:09.227Z,88.90
2019-05-18T20:00:37.559Z,88.90
2019-05-18T20:03:06.327Z,89.00
2019-05-18T20:05:35.007Z,89.80
2019-05-18T20:08:03.585Z,90.20
2019-05-18T20:10:32.305Z,90.20
2019-05-18T20:13:01.008Z,90.50
2019-05-18T20:15:29.659Z,90.70
2019-05-18T20:17:58.260Z,91.30
2019-05-18T20:20:26.924Z,91.10
2019-05-18T20:22:55.932Z,91.20
2019-05-18T20:25:24.609Z,91.30
2019-05-18T20:27:53.136Z,91.50
2019-05-18T20:30:24.009Z,91.40
2019-05-18T20:32:52.277Z,91.30
2019-05-18T20:35:20.810Z,91.20
2019-05-18T20:37:49.382Z,91.20
2019-05-18T20:40:18.090Z,91.00
2019-05-18T20:42:46.845Z,91.20
2019-05-18T20:45:15.469Z,91.00
2019-05-18T20:47:44.021Z,91.30
2019-05-18T20:50:13.255Z,91.70
2019-05-18T20:52:41.888Z,91.60
2019-05-18T20:55:10.622Z,91.40
2019-05-18T20:57:39.204Z,91.70
2019-05-18T21:00:09.329Z,91.70
2019-05-18T21:02:38.160Z,91.70
2019-05-18T21:05:27.710Z,91.60
2019-05-18T21:07:56.469Z,91.60
2019-05-18T21:10:25.069Z,91.70
2019-05-18T21:12:53.640Z,91.70
2019-05-18T21:15:22.301Z,92.30
2019-05-18T21:17:50.947Z,92.10
2019-05-18T21:20:19.846Z,92.20
2019-05-18T21:22:48.405Z,92.60
2019-05-18T21:25:17.042Z,92.50
2019-05-18T21:27:45.631Z,92.50
2019-05-18T21:30:15.031Z,92.60
2019-05-18T21:32:43.619Z,92.80
2019-05-18T21:35:12.352Z,92.90
2019-05-18T21:37:40.911Z,93.10
2019-05-18T21:40:11.031Z,93.20
2019-05-18T21:42:39.646Z,93.30
2019-05-18T21:45:09.003Z,93.50
2019-05-18T21:47:37.540Z,93.80
2019-05-18T21:50:07.954Z,93.50
2019-05-18T21:52:36.647Z,93.50
2019-05-18T21:55:09.271Z,93.60
2019-05-18T21:57:37.833Z,93.50
2019-05-18T22:00:09.154Z,93.30
2019-05-18T22:02:37.784Z,93.50
2019-05-18T22:05:07.118Z,93.30
2019-05-18T22:07:35.831Z,93.20
2019-05-18T22:10:24.432Z,93.00
2019-05-18T22:12:39.558Z,92.80
2019-05-18T22:15:09.301Z,92.60
2019-05-18T22:17:56.139Z,92.90
2019-05-18T22:20:25.157Z,92.70
2019-05-18T22:22:53.767Z,93.00
2019-05-18T22:25:22.401Z,92.90
2019-05-18T22:27:51.012Z,92.90
2019-05-18T22:30:19.629Z,93.00
2019-05-18T22:33:07.506Z,93.20
2019-05-18T22:35:36.122Z,93.20
2019-05-18T22:38:04.855Z,93.20
2019-05-18T22:40:33.491Z,93.60
2019-05-18T22:43:02.230Z,93.80
2019-05-18T22:45:31.663Z,93.90
2019-05-18T22:48:00.379Z,93.90
2019-05-18T22:50:29.023Z,94.00
2019-05-18T22:52:57.930Z,94.10
2019-05-18T22:55:26.510Z,94.30
2019-05-18T22:57:55.075Z,94.20
2019-05-18T23:00:23.841Z,94.40
2019-05-18T23:02:52.395Z,94.50
2019-05-18T23:05:20.949Z,94.60
2019-05-18T23:07:49.594Z,94.60
2019-05-18T23:10:18.219Z,94.80
2019-05-18T23:12:46.795Z,94.80
2019-05-18T23:15:15.434Z,94.80
2019-05-18T23:17:44.015Z,95.00
2019-05-18T23:20:13.209Z,95.20
2019-05-18T23:22:42.499Z,95.40
2019-05-18T23:25:11.475Z,95.50
2019-05-18T23:27:40.037Z,95.50
2019-05-18T23:30:09.370Z,95.30
2019-05-18T23:32:37.991Z,95.40
2019-05-18T23:35:06.858Z,95.70
2019-05-18T23:37:35.431Z,95.60
2019-05-18T23:40:05.637Z,95.50
2019-05-18T23:42:34.195Z,95.60
2019-05-18T23:45:03.148Z,95.60
2019-05-18T23:47:31.710Z,95.70
2019-05-18T23:50:00.339Z,95.70
2019-05-18T23:52:28.917Z,95.80
2019-05-18T23:54:57.477Z,96.10
2019-05-18T23:57:26.069Z,96.20
2019-05-18T23:59:54.661Z,96.20
